McCall, Louisiana
Current Conditions -  °F | °C
As of 11:55 AM on Friday 24 Oct 2014 (Local Time) from KL38 Reporting Station
Clear Clear  
Wind Chill: 70°   Ceiling: Unl
Heat Index: 70°   Visibility: 10mi
Dew Point: 51°   Wind: 6mph
Humidity: 50%   Direction: 10°N
Pressure: 30.11"   Gusts: NA
Location:  30.1206°N, 91.0306°W
Report Text: KL38 241655Z AUTO 01005KT 10SM CLR 21/10 A3011 RMK AO2 T02110103
Loading
Personal Weather Stations






























Interactive Weather Map
Tropical Storm Tracking
New forecast layout! Learn more

10-Day Weather Forecast

Advertisements
Track Severe Weather on mobile